Time;durP1;ratioP1;P1;durP2;ratioP2;P2;SDS_P1;SDS_P2;PMS_P1;PMS_P2;Temp;Humidity;BMP_temperature;BMP_pressure;BME280_temperature;BME280_humidity;BME280_pressure;Samples;Min_cycle;Max_cycle;Signal;HPM_P1;HPM_P2
2022/05/11 00:00:15;;;;;;;8.98;6.03;;;13.90;99.90;;;;;;5063759;28;20140;-52
2022/05/11 00:02:41;;;;;;;8.38;5.50;;;13.90;99.90;;;;;;5079140;28;20037;-52
2022/05/11 00:05:10;;;;;;;7.80;5.85;;;13.80;99.90;;;;;;5081311;28;20047;-57
2022/05/11 00:07:36;;;;;;;10.48;5.80;;;13.80;99.90;;;;;;5077705;28;20043;-58
2022/05/11 00:10:11;;;;;;;9.50;5.38;;;13.80;99.90;;;;;;5088297;28;20087;-58
2022/05/11 00:12:42;;;;;;;8.55;5.63;;;13.80;99.90;;;;;;5075574;28;20049;-58
2022/05/11 00:15:13;;;;;;;9.27;5.72;;;13.80;99.90;;;;;;5050668;28;20040;-58
2022/05/11 00:17:39;;;;;;;7.10;5.53;;;13.80;99.90;;;;;;5074161;28;20051;-58
2022/05/11 00:20:07;;;;;;;9.48;6.25;;;13.80;99.90;;;;;;5070187;28;20170;-57
2022/05/11 00:22:34;;;;;;;8.85;5.50;;;13.80;99.90;;;;;;5085011;28;20160;-58
2022/05/11 00:25:00;;;;;;;8.57;5.22;;;13.70;99.90;;;;;;5072205;28;20049;-58
2022/05/11 00:27:26;;;;;;;10.75;5.47;;;13.70;99.90;;;;;;5073047;28;20079;-58
2022/05/11 00:29:54;;;;;;;9.73;5.07;;;13.70;99.90;;;;;;5070352;28;20056;-58
2022/05/11 00:32:24;;;;;;;8.07;5.28;;;13.70;99.90;;;;;;5076233;28;20492;-58
2022/05/11 00:34:54;;;;;;;10.00;5.38;;;13.70;99.90;;;;;;5088263;28;20040;-58
2022/05/11 00:37:24;;;;;;;11.82;5.20;;;13.70;99.90;;;;;;5058129;28;20507;-58
2022/05/11 00:39:50;;;;;;;11.63;5.70;;;13.70;99.90;;;;;;5095997;28;20048;-58
2022/05/11 00:42:16;;;;;;;6.32;5.22;;;13.60;99.90;;;;;;5071653;28;20052;-58
2022/05/11 00:44:42;;;;;;;8.90;5.50;;;13.60;99.90;;;;;;5075146;28;20136;-58
2022/05/11 00:47:23;;;;;;;10.73;5.97;;;13.60;99.90;;;;;;5080217;28;20043;-49
2022/05/11 00:49:52;;;;;;;7.57;5.35;;;13.60;99.90;;;;;;5076711;28;20059;-53
2022/05/11 00:52:22;;;;;;;9.32;5.50;;;13.60;99.90;;;;;;5068028;28;20052;-52
2022/05/11 00:54:57;;;;;;;8.57;5.55;;;13.60;99.90;;;;;;5063824;28;20529;-49
2022/05/11 00:57:49;;;;;;;8.23;5.00;;;13.60;99.90;;;;;;5076629;28;20044;-49
2022/05/11 01:00:17;;;;;;;7.32;5.00;;;13.60;99.90;;;;;;5072399;28;20044;-53
2022/05/11 01:02:46;;;;;;;10.02;5.78;;;13.50;99.90;;;;;;5072314;28;20048;-51
2022/05/11 01:05:12;;;;;;;7.68;5.55;;;13.50;99.90;;;;;;5087916;28;20109;-49
2022/05/11 01:07:39;;;;;;;8.52;5.93;;;13.50;99.90;;;;;;5085321;28;20139;-50
2022/05/11 01:10:08;;;;;;;10.88;5.80;;;13.50;99.90;;;;;;5079173;28;20052;-52
2022/05/11 01:12:47;;;;;;;11.73;6.05;;;13.50;99.90;;;;;;5080803;28;20063;-50
2022/05/11 01:15:16;;;;;;;9.30;6.00;;;13.50;99.90;;;;;;5074336;28;20055;-51
2022/05/11 01:17:42;;;;;;;7.50;5.70;;;13.50;99.90;;;;;;5078912;28;20457;-58
2022/05/11 01:20:15;;;;;;;9.70;6.60;;;13.50;99.90;;;;;;5085418;28;20048;-50
2022/05/11 01:22:45;;;;;;;11.88;6.53;;;13.50;99.90;;;;;;5086235;28;20123;-51
2022/05/11 01:25:15;;;;;;;10.75;6.32;;;13.50;99.90;;;;;;5083297;28;20424;-58
2022/05/11 01:27:47;;;;;;;7.07;5.75;;;13.50;99.90;;;;;;5087521;28;20052;-58
2022/05/11 01:30:21;;;;;;;6.78;5.40;;;13.50;99.90;;;;;;5080102;28;20112;-52
2022/05/11 01:32:53;;;;;;;11.00;6.90;;;13.50;99.90;;;;;;5077729;28;20466;-58
2022/05/11 01:35:45;;;;;;;6.70;5.93;;;13.50;99.90;;;;;;5074727;28;20041;-58
2022/05/11 01:38:51;;;;;;;11.88;6.57;;;13.50;99.90;;;;;;5088513;28;20498;-57
2022/05/11 01:41:20;;;;;;;9.85;6.00;;;13.50;99.90;;;;;;5040130;28;20857;-53
2022/05/11 01:43:46;;;;;;;8.95;6.10;;;13.50;99.90;;;;;;5059622;28;20059;-51
2022/05/11 01:46:13;;;;;;;8.18;6.00;;;13.50;99.90;;;;;;5054010;28;20158;-53
2022/05/11 01:48:39;;;;;;;8.82;5.90;;;13.50;99.90;;;;;;5061767;28;20354;-51
2022/05/11 01:51:06;;;;;;;10.65;6.97;;;13.50;99.90;;;;;;5073699;28;20045;-58
2022/05/11 01:53:32;;;;;;;8.15;5.78;;;13.50;99.90;;;;;;5082701;28;20476;-58
2022/05/11 01:55:58;;;;;;;13.48;6.38;;;13.50;99.90;;;;;;5084080;28;20530;-58
2022/05/11 01:58:24;;;;;;;9.95;7.10;;;13.50;99.90;;;;;;5077583;28;20091;-52
2022/05/11 02:00:51;;;;;;;9.60;6.38;;;13.50;99.90;;;;;;5047777;28;20056;-51
2022/05/11 02:03:18;;;;;;;9.80;7.28;;;13.40;99.90;;;;;;5072397;28;20138;-51
2022/05/11 02:08:36;;;;;;;8.32;6.75;;;13.50;99.90;;;;;;5101511;28;20044;-58
2022/05/11 02:11:05;;;;;;;8.27;5.90;;;13.50;99.90;;;;;;5085892;28;20046;-58
2022/05/11 02:13:33;;;;;;;10.02;7.05;;;13.50;99.90;;;;;;5091366;28;20533;-58
2022/05/11 02:16:02;;;;;;;11.45;6.57;;;13.40;99.90;;;;;;5081516;28;20041;-58
2022/05/11 02:18:29;;;;;;;8.63;7.50;;;13.50;99.90;;;;;;5046141;28;20894;-53
2022/05/11 02:20:55;;;;;;;9.73;6.95;;;13.50;99.90;;;;;;5076111;28;20044;-53
2022/05/11 02:23:22;;;;;;;10.23;6.43;;;13.50;99.90;;;;;;5073530;28;20048;-52
2022/05/11 02:25:50;;;;;;;9.57;6.60;;;13.50;99.90;;;;;;5072094;28;20047;-52
2022/05/11 02:28:18;;;;;;;9.98;7.00;;;13.50;99.90;;;;;;5055535;28;20507;-51
2022/05/11 02:30:46;;;;;;;12.20;6.90;;;13.50;99.90;;;;;;5072930;28;20488;-51
2022/05/11 02:33:12;;;;;;;12.52;6.93;;;13.50;99.90;;;;;;5082863;28;20052;-50
2022/05/11 02:35:40;;;;;;;10.55;6.65;;;13.50;99.90;;;;;;5070786;28;20046;-58
2022/05/11 02:38:09;;;;;;;10.52;6.93;;;13.50;99.90;;;;;;5086742;28;20063;-57
2022/05/11 02:40:38;;;;;;;10.10;6.28;;;13.50;99.90;;;;;;5087225;28;20123;-58
2022/05/11 02:43:06;;;;;;;10.00;6.60;;;13.50;99.90;;;;;;5087062;28;20044;-57
2022/05/11 02:45:35;;;;;;;11.90;6.50;;;13.60;99.90;;;;;;5081632;28;20048;-58
2022/05/11 02:48:02;;;;;;;8.73;6.35;;;13.60;99.90;;;;;;5086603;28;20048;-57
2022/05/11 02:50:59;;;;;;;9.25;6.07;;;13.60;99.90;;;;;;5085736;28;20048;-58
2022/05/11 02:53:28;;;;;;;9.95;6.38;;;13.60;99.90;;;;;;5078965;28;20410;-57
2022/05/11 02:55:55;;;;;;;8.25;5.68;;;13.60;99.90;;;;;;5082489;28;20059;-57
2022/05/11 02:58:24;;;;;;;9.50;6.90;;;13.60;99.90;;;;;;5089961;28;20043;-57
2022/05/11 03:00:52;;;;;;;10.27;6.13;;;13.60;99.90;;;;;;5088116;28;20440;-54
2022/05/11 03:03:20;;;;;;;9.82;6.25;;;13.60;99.90;;;;;;5076499;28;20064;-51
2022/05/11 03:05:47;;;;;;;10.82;6.43;;;13.50;99.90;;;;;;5062275;28;20063;-51
2022/05/11 03:08:13;;;;;;;10.10;6.30;;;13.50;99.90;;;;;;5073047;28;20067;-52
2022/05/11 03:10:40;;;;;;;9.43;5.85;;;13.50;99.90;;;;;;5079984;28;20167;-51
2022/05/11 03:13:11;;;;;;;9.80;6.18;;;13.60;99.90;;;;;;5085500;28;20047;-57
2022/05/11 03:15:37;;;;;;;9.98;5.57;;;13.60;99.90;;;;;;5075978;28;20083;-51
2022/05/11 03:18:04;;;;;;;8.80;5.68;;;13.60;99.90;;;;;;5079552;28;20098;-57
2022/05/11 03:20:30;;;;;;;8.52;5.60;;;13.60;99.90;;;;;;5086809;28;20047;-52
2022/05/11 03:22:57;;;;;;;8.70;5.63;;;13.60;99.90;;;;;;5070558;28;20044;-58
2022/05/11 03:25:24;;;;;;;8.43;5.15;;;13.60;99.90;;;;;;5076885;28;20044;-53
2022/05/11 03:27:50;;;;;;;6.38;5.10;;;13.60;99.90;;;;;;5068118;28;20052;-56
2022/05/11 03:30:17;;;;;;;8.95;5.72;;;13.60;99.90;;;;;;5084213;28;20052;-53
2022/05/11 03:35:29;;;;;;;11.30;5.97;;;13.60;99.90;;;;;;5082850;28;20083;-59
2022/05/11 03:37:55;;;;;;;10.52;5.82;;;13.60;99.90;;;;;;5063500;28;20105;-58
2022/05/11 03:40:21;;;;;;;10.35;5.63;;;13.70;99.90;;;;;;5086564;28;20996;-59
2022/05/11 03:42:47;;;;;;;9.57;6.03;;;13.70;99.90;;;;;;5093685;28;20083;-58
2022/05/11 03:45:16;;;;;;;9.35;6.00;;;13.70;99.90;;;;;;5092110;28;20055;-59
2022/05/11 03:47:43;;;;;;;7.07;5.65;;;13.70;99.90;;;;;;5081642;28;20052;-58
2022/05/11 03:50:12;;;;;;;8.95;5.70;;;13.70;99.90;;;;;;5086360;28;20044;-59
2022/05/11 03:52:38;;;;;;;10.10;5.70;;;13.70;99.90;;;;;;5058045;28;20182;-53
2022/05/11 03:55:08;;;;;;;10.90;5.97;;;13.70;99.90;;;;;;5075521;28;20403;-52
2022/05/11 03:57:37;;;;;;;8.82;5.75;;;13.70;99.90;;;;;;5068323;28;20551;-51
2022/05/11 04:00:06;;;;;;;9.38;6.18;;;13.70;99.90;;;;;;5067925;28;20602;-53
2022/05/11 04:02:39;;;;;;;11.18;5.95;;;13.70;99.90;;;;;;5072329;28;20041;-51
2022/05/11 04:05:05;;;;;;;12.05;6.00;;;13.70;99.90;;;;;;5073689;28;20040;-52
2022/05/11 04:07:33;;;;;;;9.15;5.40;;;13.80;99.90;;;;;;5090993;28;20052;-53
2022/05/11 04:09:59;;;;;;;11.57;6.55;;;13.70;99.90;;;;;;5066955;28;20086;-54
2022/05/11 04:12:29;;;;;;;13.10;5.57;;;13.70;99.90;;;;;;5080833;28;20044;-53
2022/05/11 04:14:56;;;;;;;9.75;6.15;;;13.80;99.90;;;;;;5069064;28;20048;-58
2022/05/11 04:17:27;;;;;;;9.93;5.90;;;13.80;99.90;;;;;;5080115;28;20048;-58
2022/05/11 04:19:53;;;;;;;10.77;6.18;;;13.80;99.90;;;;;;5074330;28;20044;-58
2022/05/11 04:22:19;;;;;;;8.45;5.75;;;13.80;99.90;;;;;;5075683;28;20044;-58
2022/05/11 04:24:46;;;;;;;10.70;5.85;;;13.80;99.90;;;;;;5086996;28;20070;-58
2022/05/11 04:27:14;;;;;;;15.10;6.40;;;13.80;99.90;;;;;;5088977;28;20044;-58
2022/05/11 04:29:40;;;;;;;11.32;6.68;;;13.80;99.90;;;;;;5104671;28;20070;-58
2022/05/11 04:32:10;;;;;;;9.73;6.60;;;13.80;99.90;;;;;;5089608;28;20114;-58
2022/05/11 04:34:41;;;;;;;9.93;6.47;;;13.80;99.90;;;;;;5082922;28;20047;-58
2022/05/11 04:37:11;;;;;;;12.63;6.57;;;13.80;99.90;;;;;;5079580;28;20098;-58
2022/05/11 04:39:39;;;;;;;11.50;7.18;;;13.80;99.90;;;;;;5084448;28;20769;-58
2022/05/11 04:42:10;;;;;;;13.57;7.03;;;13.80;99.90;;;;;;5082403;28;20056;-53
2022/05/11 04:44:36;;;;;;;11.80;6.37;;;13.80;99.90;;;;;;5082742;28;20044;-52
2022/05/11 04:47:13;;;;;;;10.32;6.75;;;13.80;99.90;;;;;;5070695;28;20082;-53
2022/05/11 04:49:40;;;;;;;10.27;6.82;;;13.80;99.90;;;;;;5074175;28;20056;-53
2022/05/11 04:52:10;;;;;;;16.25;7.95;;;13.80;99.90;;;;;;5062701;28;20673;-52
2022/05/11 04:54:48;;;;;;;11.60;7.07;;;13.80;99.90;;;;;;5085631;28;20048;-55
2022/05/11 04:57:15;;;;;;;10.68;6.80;;;13.90;99.90;;;;;;5082890;28;20066;-54
2022/05/11 04:59:41;;;;;;;10.88;6.40;;;13.90;99.90;;;;;;5062306;28;20828;-54
2022/05/11 05:02:14;;;;;;;10.35;6.53;;;13.90;99.90;;;;;;5073431;28;20101;-53
2022/05/11 05:04:41;;;;;;;9.90;6.22;;;13.90;99.90;;;;;;5077645;28;20535;-54
2022/05/11 05:07:07;;;;;;;10.10;6.80;;;13.80;99.90;;;;;;5072814;28;20073;-53
2022/05/11 05:09:33;;;;;;;10.55;6.15;;;13.90;99.90;;;;;;5074871;28;20691;-54
2022/05/11 05:12:01;;;;;;;15.95;7.10;;;13.90;99.90;;;;;;5081414;28;20383;-51
2022/05/11 05:14:27;;;;;;;12.35;6.50;;;13.90;99.90;;;;;;5072872;28;20722;-58
2022/05/11 05:17:03;;;;;;;10.38;6.65;;;13.90;99.90;;;;;;5090197;28;20052;-57
2022/05/11 05:19:29;;;;;;;10.32;6.85;;;14.00;99.90;;;;;;5091769;28;20044;-57
2022/05/11 05:21:56;;;;;;;10.60;6.45;;;14.00;99.90;;;;;;5091012;28;20728;-58
2022/05/11 05:24:22;;;;;;;11.80;7.55;;;14.00;99.90;;;;;;5082178;28;20052;-57
2022/05/11 05:26:48;;;;;;;9.60;7.07;;;14.10;99.90;;;;;;5069941;28;20789;-57
2022/05/11 05:31:59;;;;;;;11.30;5.85;;;14.20;99.90;;;;;;5075068;28;20059;-53
2022/05/11 05:34:25;;;;;;;8.65;6.65;;;14.30;99.90;;;;;;5084037;28;20241;-53
2022/05/11 05:36:51;;;;;;;11.05;6.65;;;14.40;99.90;;;;;;5074062;28;20057;-53
2022/05/11 05:39:17;;;;;;;10.30;6.68;;;14.40;99.90;;;;;;5064813;28;20512;-53
2022/05/11 05:41:43;;;;;;;9.65;6.78;;;14.60;99.90;;;;;;5039809;28;20048;-58
2022/05/11 05:44:09;;;;;;;9.65;6.65;;;14.60;99.90;;;;;;5093482;28;20498;-58
2022/05/11 05:46:36;;;;;;;10.25;6.57;;;14.70;99.90;;;;;;5079226;28;20059;-58
2022/05/11 05:49:04;;;;;;;12.10;6.78;;;14.80;99.90;;;;;;5085398;28;20051;-58
2022/05/11 05:51:30;;;;;;;10.38;7.07;;;14.80;99.90;;;;;;5087941;28;20094;-58
2022/05/11 05:53:57;;;;;;;9.23;6.57;;;14.80;99.90;;;;;;5077314;28;20063;-59
2022/05/11 05:56:24;;;;;;;9.05;6.20;;;14.80;99.90;;;;;;5088040;28;20059;-59
2022/05/11 05:58:50;;;;;;;13.68;7.07;;;14.90;99.90;;;;;;5089262;28;20486;-58
2022/05/11 06:01:16;;;;;;;10.52;6.20;;;14.90;99.90;;;;;;5091231;28;20044;-58
2022/05/11 06:03:44;;;;;;;14.23;6.53;;;14.80;99.90;;;;;;5086821;28;20054;-59
2022/05/11 06:06:11;;;;;;;10.05;6.30;;;14.80;99.90;;;;;;5107889;28;20051;-58
2022/05/11 06:08:37;;;;;;;13.20;6.25;;;14.80;99.90;;;;;;5090230;28;20040;-58
2022/05/11 06:11:06;;;;;;;12.73;6.88;;;14.80;99.90;;;;;;5089649;28;20400;-58
2022/05/11 06:13:32;;;;;;;8.43;5.45;;;14.80;99.90;;;;;;5092215;28;20645;-58
2022/05/11 06:15:58;;;;;;;10.15;4.88;;;14.90;99.90;;;;;;5099526;28;20079;-58
2022/05/11 06:18:25;;;;;;;9.13;5.40;;;14.90;99.90;;;;;;5087290;28;20512;-58
2022/05/11 06:20:52;;;;;;;10.35;5.65;;;15.00;99.90;;;;;;5091334;28;20105;-58
2022/05/11 06:23:21;;;;;;;8.27;5.00;;;15.00;99.90;;;;;;5092270;28;20056;-58
2022/05/11 06:25:49;;;;;;;11.57;5.47;;;15.00;99.90;;;;;;5106854;28;20798;-59
2022/05/11 06:28:16;;;;;;;11.98;5.68;;;15.10;99.90;;;;;;5112109;27;20108;-58
2022/05/11 06:30:42;;;;;;;7.90;5.05;;;15.20;99.90;;;;;;5102956;28;20046;-58
2022/05/11 06:33:08;;;;;;;11.43;4.55;;;15.20;99.90;;;;;;5083270;28;20053;-58
2022/05/11 06:35:34;;;;;;;9.25;5.05;;;15.30;99.90;;;;;;5071419;28;20051;-59
2022/05/11 06:38:05;;;;;;;10.07;4.80;;;15.50;99.90;;;;;;5030972;28;20048;-53
2022/05/11 06:40:31;;;;;;;8.32;4.60;;;15.50;99.90;;;;;;5064950;28;20620;-50
2022/05/11 06:42:58;;;;;;;10.38;4.55;;;15.60;99.90;;;;;;5079877;28;20054;-54
2022/05/11 06:45:24;;;;;;;8.98;4.78;;;15.70;99.90;;;;;;5100651;28;20059;-52
2022/05/11 06:47:50;;;;;;;9.02;4.55;;;15.70;99.90;;;;;;5084574;28;20515;-55
2022/05/11 06:50:17;;;;;;;8.40;4.07;;;15.80;99.90;;;;;;5072672;28;20666;-53
2022/05/11 06:52:43;;;;;;;8.55;3.97;;;15.90;99.90;;;;;;5081590;28;20060;-52
2022/05/11 07:00:40;;;;;;;9.38;4.05;;;16.10;99.90;;;;;;5083697;28;20441;-53
2022/05/11 07:03:06;;;;;;;8.80;3.30;;;16.20;99.90;;;;;;5083199;28;20056;-51
2022/05/11 07:05:32;;;;;;;7.47;3.13;;;16.30;99.90;;;;;;5099381;28;20040;-51
2022/05/11 07:07:59;;;;;;;10.25;3.47;;;16.30;99.90;;;;;;5082893;28;20122;-53
2022/05/11 07:10:25;;;;;;;7.57;3.15;;;16.20;99.90;;;;;;5084508;28;20149;-52
2022/05/11 07:12:51;;;;;;;12.93;3.97;;;16.10;99.90;;;;;;5065518;28;20048;-51
2022/05/11 07:15:21;;;;;;;7.80;3.33;;;16.20;99.90;;;;;;5062910;28;20051;-53
2022/05/11 07:17:51;;;;;;;8.63;3.13;;;16.20;99.90;;;;;;5063426;28;20044;-54
2022/05/11 07:20:33;;;;;;;12.88;3.50;;;16.30;99.90;;;;;;5063941;28;20067;-53
2022/05/11 07:23:03;;;;;;;8.32;3.08;;;16.50;99.90;;;;;;5081837;28;20100;-52
2022/05/11 07:25:30;;;;;;;9.60;3.72;;;16.60;99.90;;;;;;5073960;28;20339;-52
2022/05/11 07:27:58;;;;;;;7.53;3.10;;;16.80;99.90;;;;;;5083088;28;20123;-51
2022/05/11 07:30:30;;;;;;;7.32;2.78;;;16.90;99.90;;;;;;5099730;28;20052;-53
2022/05/11 07:32:57;;;;;;;15.02;3.30;;;17.00;99.90;;;;;;5099494;28;20056;-53
2022/05/11 07:35:23;;;;;;;17.23;3.67;;;17.00;99.90;;;;;;5084125;28;20132;-52
2022/05/11 07:37:50;;;;;;;14.65;3.22;;;17.00;99.90;;;;;;5082706;28;20139;-53
2022/05/11 07:40:20;;;;;;;16.02;3.63;;;17.00;99.90;;;;;;5083907;28;20052;-53
2022/05/11 07:42:46;;;;;;;12.90;3.05;;;17.20;99.90;;;;;;5066014;28;20052;-52
2022/05/11 07:45:14;;;;;;;9.52;2.50;;;17.40;99.90;;;;;;5082444;28;20524;-53
2022/05/11 07:47:40;;;;;;;7.90;2.05;;;17.30;99.90;;;;;;5082953;28;20050;-51
2022/05/11 07:50:08;;;;;;;9.10;1.90;;;17.20;99.90;;;;;;5044794;28;20198;-53
2022/05/11 07:52:34;;;;;;;5.70;1.80;;;17.20;99.90;;;;;;5070918;28;20052;-53
2022/05/11 07:55:00;;;;;;;11.88;2.38;;;17.40;99.90;;;;;;5081125;28;20044;-52
2022/05/11 08:00:12;;;;;;;7.13;2.15;;;17.50;99.90;;;;;;5073026;28;20079;-54
2022/05/11 08:02:39;;;;;;;8.48;2.45;;;17.60;99.90;;;;;;5051958;28;20063;-53
2022/05/11 08:05:09;;;;;;;7.25;2.20;;;17.80;99.90;;;;;;5061923;28;20087;-53
2022/05/11 08:07:48;;;;;;;6.82;2.22;;;17.90;99.90;;;;;;5066963;28;20145;-53
2022/05/11 08:10:18;;;;;;;8.32;1.85;;;18.00;99.90;;;;;;5075468;28;20047;-55
2022/05/11 08:12:44;;;;;;;6.82;2.00;;;18.20;99.90;;;;;;5072546;28;20566;-52
2022/05/11 08:15:12;;;;;;;7.47;2.15;;;18.20;99.90;;;;;;5076079;28;20062;-54
2022/05/11 08:17:41;;;;;;;7.50;2.38;;;18.60;99.90;;;;;;5082970;28;20450;-52
2022/05/11 08:20:14;;;;;;;5.45;1.98;;;18.90;99.90;;;;;;5082227;28;20051;-54
2022/05/11 08:22:45;;;;;;;7.88;2.28;;;19.20;99.90;;;;;;5081591;28;20063;-53
2022/05/11 08:25:21;;;;;;;9.30;2.25;;;19.40;99.90;;;;;;5081705;28;20055;-54
2022/05/11 08:27:49;;;;;;;7.75;2.20;;;19.30;99.90;;;;;;5058936;28;20778;-55
2022/05/11 08:35:50;;;;;;;7.03;2.03;;;19.70;99.90;;;;;;5083650;28;20040;-50
2022/05/11 08:38:19;;;;;;;9.52;2.70;;;19.70;99.90;;;;;;5080673;28;20060;-53
2022/05/11 08:40:49;;;;;;;13.43;2.63;;;19.50;99.90;;;;;;5077409;28;20044;-54
2022/05/11 08:43:18;;;;;;;8.82;2.60;;;19.80;99.90;;;;;;5079580;28;20154;-53
2022/05/11 08:45:49;;;;;;;11.18;2.30;;;20.00;99.90;;;;;;5072219;28;20049;-54
2022/05/11 08:48:36;;;;;;;7.85;2.13;;;20.30;99.90;;;;;;5090562;28;20113;-52
2022/05/11 08:51:09;;;;;;;10.13;2.00;;;20.00;99.90;;;;;;5071961;28;20511;-55
2022/05/11 08:53:38;;;;;;;9.73;2.45;;;20.70;99.90;;;;;;5096862;28;20051;-55
2022/05/11 08:56:26;;;;;;;7.05;2.00;;;20.90;99.90;;;;;;5062349;28;20045;-53
2022/05/11 08:58:54;;;;;;;6.65;1.92;;;20.90;99.90;;;;;;5044359;28;20159;-52
2022/05/11 09:01:30;;;;;;;9.32;2.03;;;21.10;99.90;;;;;;5069803;28;20075;-53
2022/05/11 09:03:59;;;;;;;6.95;2.10;;;20.90;99.90;;;;;;5077505;28;20052;-50
2022/05/11 09:06:28;;;;;;;14.43;3.15;;;20.40;99.90;;;;;;5079602;28;20306;-53
2022/05/11 09:08:57;;;;;;;7.50;1.90;;;20.60;99.90;;;;;;5077698;28;20121;-53
2022/05/11 09:11:46;;;;;;;7.85;1.70;;;20.60;99.90;;;;;;5076599;28;20497;-53
2022/05/11 09:14:31;;;;;;;8.57;1.65;;;21.00;99.90;;;;;;5069009;28;20049;-53
2022/05/11 09:16:57;;;;;;;24.42;3.13;;;21.60;99.90;;;;;;5063516;28;20056;-52
2022/05/11 09:19:30;;;;;;;14.90;2.75;;;21.40;99.90;;;;;;5078562;28;20080;-55
2022/05/11 09:22:09;;;;;;;7.55;2.17;;;21.50;99.90;;;;;;5077629;28;20488;-54
2022/05/11 09:24:44;;;;;;;9.73;2.80;;;21.50;99.90;;;;;;5066244;28;20059;-56
2022/05/11 09:27:22;;;;;;;8.93;2.20;;;22.20;99.80;;;;;;5079579;28;20044;-55
2022/05/11 09:29:56;;;;;;;7.60;1.55;;;22.00;99.90;;;;;;5082798;28;20691;-53
2022/05/11 09:32:29;;;;;;;8.35;2.03;;;22.00;98.70;;;;;;5071710;28;20060;-54
2022/05/11 09:35:15;;;;;;;9.30;2.28;;;21.50;98.80;;;;;;5064709;28;20067;-55
2022/05/11 09:37:44;;;;;;;6.38;1.58;;;21.90;99.30;;;;;;5080614;28;20052;-52
2022/05/11 09:40:22;;;;;;;7.82;2.20;;;21.20;99.90;;;;;;5073220;28;20052;-54
2022/05/11 09:43:02;;;;;;;6.95;1.88;;;21.40;99.40;;;;;;5059431;28;20044;-52
2022/05/11 09:45:48;;;;;;;8.82;1.88;;;21.00;98.60;;;;;;5083337;28;20040;-53
2022/05/11 09:48:22;;;;;;;6.70;1.50;;;21.40;98.50;;;;;;5083556;28;20476;-55
2022/05/11 09:50:54;;;;;;;7.13;1.63;;;21.90;96.90;;;;;;5082172;28;20553;-50
2022/05/11 09:53:20;;;;;;;7.63;1.52;;;22.10;97.40;;;;;;5079618;28;21250;-53
2022/05/11 09:55:46;;;;;;;7.18;1.73;;;22.40;96.70;;;;;;5077439;28;20369;-54
2022/05/11 09:58:33;;;;;;;5.82;1.30;;;22.40;94.80;;;;;;5070675;28;20044;-54
2022/05/11 10:01:10;;;;;;;5.05;1.20;;;22.30;93.60;;;;;;5077028;28;20056;-54
2022/05/11 10:03:41;;;;;;;6.10;1.20;;;22.40;93.00;;;;;;5073678;28;20055;-50
2022/05/11 10:06:09;;;;;;;6.68;1.27;;;22.80;92.20;;;;;;5061110;28;20127;-58
2022/05/11 10:08:38;;;;;;;9.55;1.38;;;22.50;92.00;;;;;;5081984;28;20056;-59
2022/05/11 10:11:20;;;;;;;7.80;1.63;;;22.50;91.50;;;;;;5088373;28;20048;-58
2022/05/11 10:13:51;;;;;;;9.10;1.67;;;22.50;95.30;;;;;;5089126;28;20461;-58
2022/05/11 10:22:35;;;;;;;5.68;1.50;;;22.50;93.40;;;;;;5073700;28;20041;-58
2022/05/11 10:25:16;;;;;;;6.22;1.60;;;22.50;95.60;;;;;;5092294;28;20155;-58
2022/05/11 10:27:45;;;;;;;;;;;22.60;95.80;;;;;;5089801;28;20507;-59
2022/05/11 10:30:20;;;;;;;5.90;1.63;;;23.10;97.00;;;;;;5079829;28;20660;-58
2022/05/11 10:33:09;;;;;;;5.65;1.80;;;23.70;94.50;;;;;;5086874;28;20048;-58
2022/05/11 10:35:53;;;;;;;4.88;1.35;;;23.90;82.20;;;;;;5089111;28;20503;-59
2022/05/11 10:38:32;;;;;;;5.15;1.38;;;23.50;72.60;;;;;;5075518;28;20045;-58
2022/05/11 10:41:10;;;;;;;7.63;1.80;;;23.60;86.30;;;;;;5096899;28;20112;-59
2022/05/11 10:44:04;;;;;;;7.20;1.40;;;22.50;94.40;;;;;;5084962;28;20167;-59
2022/05/11 10:46:51;;;;;;;5.30;1.70;;;23.00;93.00;;;;;;5070058;28;20044;-58
2022/05/11 10:49:36;;;;;;;5.50;1.20;;;23.50;91.70;;;;;;5095168;28;20147;-59
2022/05/11 10:52:46;;;;;;;5.78;1.25;;;23.60;86.50;;;;;;5054044;28;20040;-59
2022/05/11 10:55:36;;;;;;;5.15;1.30;;;23.40;79.40;;;;;;5088597;28;20734;-59
2022/05/11 10:58:10;;;;;;;6.60;1.52;;;23.10;87.00;;;;;;5043353;28;20063;-59
2022/05/11 11:00:43;;;;;;;8.32;1.70;;;23.70;89.30;;;;;;5080481;28;20044;-59
2022/05/11 11:03:46;;;;;;;6.25;1.55;;;23.80;82.60;;;;;;5086414;28;20391;-60
2022/05/11 11:07:11;;;;;;;9.15;2.08;;;23.30;90.20;;;;;;5082842;28;20147;-59
2022/05/11 11:09:52;;;;;;;7.63;1.58;;;23.70;91.60;;;;;;5072884;28;20062;-59
2022/05/11 11:12:55;;;;;;;6.78;1.70;;;23.80;67.40;;;;;;5095308;28;20056;-59
2022/05/11 11:15:26;;;;;;;5.72;1.45;;;24.20;76.70;;;;;;5092645;28;20071;-59
2022/05/11 11:17:54;;;;;;;9.95;2.10;;;24.50;84.10;;;;;;5082921;28;20061;-60
2022/05/11 11:20:22;;;;;;;5.95;1.40;;;24.20;72.20;;;;;;5071379;28;20474;-60
2022/05/11 11:23:12;;;;;;;6.45;1.55;;;24.80;76.00;;;;;;5083881;28;20067;-59
2022/05/11 11:25:46;;;;;;;6.63;1.73;;;24.70;71.20;;;;;;5078943;28;20048;-60
2022/05/11 11:28:15;;;;;;;6.53;1.73;;;24.60;70.20;;;;;;5084236;28;20059;-60
2022/05/11 11:31:00;;;;;;;6.15;1.77;;;24.70;75.20;;;;;;5083789;28;20197;-60
2022/05/11 11:33:30;;;;;;;6.72;1.80;;;24.50;80.00;;;;;;5082668;28;20060;-61
2022/05/11 11:36:28;;;;;;;5.60;1.50;;;24.40;81.60;;;;;;5081295;28;20051;-61
2022/05/11 11:38:58;;;;;;;6.13;1.85;;;24.90;78.80;;;;;;5083233;28;20060;-60
2022/05/11 11:41:28;;;;;;;7.93;1.65;;;24.40;81.60;;;;;;5084435;28;20475;-60
2022/05/11 11:44:02;;;;;;;5.97;1.55;;;24.80;81.20;;;;;;5084485;28;20048;-60
2022/05/11 11:46:28;;;;;;;8.02;1.92;;;25.10;70.90;;;;;;5084933;28;20059;-61
2022/05/11 11:49:33;;;;;;;9.38;1.67;;;25.00;73.90;;;;;;5071761;28;20048;-60
2022/05/11 11:52:02;;;;;;;7.38;1.85;;;25.20;72.80;;;;;;5086412;28;20048;-61
2022/05/11 11:54:28;;;;;;;8.23;2.08;;;24.40;77.30;;;;;;5095710;28;20052;-60
2022/05/11 11:56:55;;;;;;;8.25;2.20;;;24.40;82.60;;;;;;5083068;28;20096;-60
2022/05/11 11:59:24;;;;;;;10.25;2.17;;;24.90;84.90;;;;;;5086448;28;20044;-61
2022/05/11 12:01:57;;;;;;;7.53;1.65;;;25.20;77.60;;;;;;5081850;28;20052;-60
2022/05/11 12:04:29;;;;;;;7.97;2.05;;;25.00;65.50;;;;;;5090222;28;20573;-60
2022/05/11 12:15:33;;;;;;;8.52;1.95;;;25.00;73.20;;;;;;5063048;28;20789;-60
2022/05/11 12:18:20;;;;;;;6.63;1.83;;;24.80;72.30;;;;;;5083252;28;20044;-61
2022/05/11 12:20:46;;;;;;;9.23;2.15;;;24.60;74.30;;;;;;5082184;28;20819;-60
2022/05/11 12:23:31;;;;;;;11.68;2.30;;;24.60;74.50;;;;;;5083328;28;20113;-51
2022/05/11 12:26:02;;;;;;;8.13;1.63;;;25.00;76.30;;;;;;5083771;28;20088;-54
2022/05/11 12:28:42;;;;;;;10.07;2.40;;;25.10;70.70;;;;;;5083123;28;20060;-55
2022/05/11 12:31:09;;;;;;;8.82;2.22;;;25.10;68.60;;;;;;5082260;28;20046;-55
2022/05/11 12:33:41;;;;;;;8.93;2.33;;;25.20;64.40;;;;;;5063815;28;20044;-51
2022/05/11 12:36:08;;;;;;;7.43;2.00;;;25.10;72.20;;;;;;5080565;28;20399;-52
2022/05/11 12:38:39;;;;;;;11.38;2.13;;;25.30;68.80;;;;;;5082413;28;20094;-53
2022/05/11 12:41:17;;;;;;;7.63;2.17;;;25.70;68.30;;;;;;5082880;28;20044;-54
2022/05/11 12:43:56;;;;;;;8.35;2.22;;;25.90;64.30;;;;;;5083137;28;20048;-53
2022/05/11 12:46:22;;;;;;;5.78;1.20;;;25.50;64.00;;;;;;5064707;28;20054;-54
2022/05/11 12:49:15;;;;;;;5.65;1.50;;;25.50;63.80;;;;;;5074655;28;20048;-54
2022/05/11 12:51:49;;;;;;;7.20;2.22;;;24.90;63.30;;;;;;5078990;28;20041;-53
2022/05/11 12:54:21;;;;;;;12.82;2.25;;;25.10;63.30;;;;;;5063461;28;20110;-53
2022/05/11 12:57:03;;;;;;;7.50;1.50;;;25.60;64.40;;;;;;5089672;28;20071;-53
2022/05/11 12:59:33;;;;;;;9.85;2.78;;;25.50;64.40;;;;;;5072241;28;20049;-54
2022/05/11 13:02:18;;;;;;;9.98;2.22;;;25.70;58.20;;;;;;5097854;28;20121;-53
2022/05/11 13:04:50;;;;;;;6.38;2.08;;;25.50;57.80;;;;;;5091651;28;20053;-53
2022/05/11 13:07:17;;;;;;;8.95;2.22;;;25.90;62.60;;;;;;5068231;28;20134;-54
2022/05/11 13:09:49;;;;;;;13.52;2.53;;;25.60;59.00;;;;;;5097752;28;20080;-54
2022/05/11 13:12:16;;;;;;;10.40;3.33;;;25.40;61.80;;;;;;5080281;28;20243;-55
2022/05/11 13:14:54;;;;;;;8.95;2.33;;;25.20;63.40;;;;;;5083938;28;20129;-53
2022/05/11 13:17:32;;;;;;;9.90;2.80;;;25.50;66.30;;;;;;5076574;28;20048;-53
2022/05/11 13:20:03;;;;;;;12.05;2.55;;;25.80;65.10;;;;;;5074479;28;20105;-52
2022/05/11 13:22:29;;;;;;;11.27;2.67;;;25.40;61.90;;;;;;5098743;28;20047;-55
2022/05/11 13:25:04;;;;;;;10.60;2.15;;;25.70;62.80;;;;;;5086595;28;20056;-54
2022/05/11 13:27:33;;;;;;;12.40;2.33;;;25.70;62.20;;;;;;5098817;28;20056;-59
2022/05/11 13:30:14;;;;;;;9.82;2.50;;;25.90;61.50;;;;;;5094080;27;20131;-58
2022/05/11 13:32:45;;;;;;;;;;;25.80;61.10;;;;;;5064882;28;20131;-58
2022/05/11 13:35:20;;;;;;;10.50;2.58;;;25.40;61.50;;;;;;5056540;28;19996;-51
2022/05/11 13:37:58;;;;;;;8.43;2.33;;;26.00;64.90;;;;;;5089266;28;20384;-58
2022/05/11 13:40:43;;;;;;;9.32;2.10;;;25.90;63.60;;;;;;5098998;28;20051;-50